Terminal Aerodrome Forecast
Issued by NWS

Home | Current Version | Previous Version | Text Only | Print | Product List | Glossary On
Versions: 1 2 3 4 5 6 7 8 9 10 11 12 13
412
FTUS46 KHNX 041123
TAFMER
TAF
KMER 041123Z 0412/0512 32005KT P6SM FEW150 BKN250
     FM050000 30008KT P6SM SCT060 BKN120
     FM050600 28007KT P6SM SCT040 BKN070 PROB30 0508/0512 -SHRA=

USA.gov is the U.S. government's official web portal to all federal, state and local government web resources and services.